createdAt,value
2022-12-20T00:00:33.736Z,10.10
2022-12-20T00:05:49.572Z,9.60
2022-12-20T00:10:52.367Z,7.30
2022-12-20T00:16:13.535Z,8.60
2022-12-20T00:21:16.439Z,9.50
2022-12-20T00:26:22.379Z,8.20
2022-12-20T00:31:27.291Z,13.10
2022-12-20T00:36:32.635Z,8.90
2022-12-20T00:41:35.800Z,6.40
2022-12-20T00:46:38.631Z,7.20
2022-12-20T00:51:41.409Z,6.40
2022-12-20T00:56:44.088Z,9.10
2022-12-20T01:01:47.872Z,8.50
2022-12-20T01:06:50.827Z,9.10
2022-12-20T01:11:53.540Z,6.60
2022-12-20T01:16:56.400Z,9.10
2022-12-20T01:21:59.232Z,7.40
2022-12-20T01:27:01.925Z,9.30
2022-12-20T01:32:04.734Z,9.70
2022-12-20T01:37:07.644Z,9.10
2022-12-20T01:42:14.957Z,8.50
2022-12-20T01:47:17.676Z,8.50
2022-12-20T01:52:30.216Z,8.30
2022-12-20T01:57:56.460Z,8.30
2022-12-20T02:03:04.127Z,8.70
2022-12-20T02:08:08.970Z,9.80
2022-12-20T02:13:26.354Z,9.80
2022-12-20T02:18:44.723Z,8.90
2022-12-20T02:23:59.581Z,8.00
2022-12-20T02:29:23.889Z,8.60
2022-12-20T02:34:31.429Z,11.90
2022-12-20T02:39:36.739Z,10.70
2022-12-20T02:45:05.269Z,7.50
2022-12-20T02:50:10.129Z,11.20
2022-12-20T02:55:13.141Z,9.40
2022-12-20T03:00:21.256Z,12.10
2022-12-20T03:05:26.216Z,10.60
2022-12-20T03:10:29.405Z,11.30
2022-12-20T03:15:32.103Z,15.10
2022-12-20T03:20:35.727Z,10.80
2022-12-20T03:25:38.534Z,15.60
2022-12-20T03:30:41.290Z,15.00
2022-12-20T03:35:44.331Z,13.60
2022-12-20T03:40:47.139Z,15.30
2022-12-20T03:45:49.940Z,15.80
2022-12-20T03:50:52.908Z,15.00
2022-12-20T03:55:55.687Z,17.10
2022-12-20T04:00:58.444Z,20.20
2022-12-20T04:06:01.245Z,19.10
2022-12-20T04:11:16.252Z,17.50
2022-12-20T04:16:23.014Z,15.60
2022-12-20T04:21:31.230Z,17.00
2022-12-20T04:26:34.365Z,19.40
2022-12-20T04:31:37.210Z,18.70
2022-12-20T04:36:40.172Z,18.30
2022-12-20T04:41:43.176Z,17.60
2022-12-20T04:46:46.062Z,17.50
2022-12-20T04:51:48.970Z,18.50
2022-12-20T04:56:51.656Z,17.30
2022-12-20T05:01:54.480Z,14.60
2022-12-20T05:06:57.393Z,18.10
2022-12-20T05:12:00.129Z,17.00
2022-12-20T05:17:02.984Z,16.60
2022-12-20T05:22:24.642Z,16.80
2022-12-20T05:27:27.333Z,17.90
2022-12-20T05:32:30.056Z,19.00
2022-12-20T05:37:32.765Z,16.50
2022-12-20T05:42:35.559Z,18.90
2022-12-20T05:47:39.152Z,16.10
2022-12-20T05:52:41.908Z,16.90
2022-12-20T05:57:44.657Z,14.30
2022-12-20T06:02:47.639Z,21.40
2022-12-20T06:07:50.666Z,17.70
2022-12-20T06:12:53.689Z,21.60
2022-12-20T06:17:57.101Z,18.90
2022-12-20T06:22:59.887Z,18.70
2022-12-20T06:28:02.639Z,17.40
2022-12-20T06:33:05.414Z,20.50
2022-12-20T06:38:08.496Z,20.10
2022-12-20T06:43:11.176Z,20.30
2022-12-20T06:48:14.052Z,19.90
2022-12-20T06:53:16.976Z,21.40
2022-12-20T06:58:20.616Z,18.30
2022-12-20T07:03:23.543Z,21.00
2022-12-20T07:08:26.466Z,19.50
2022-12-20T07:13:29.234Z,20.30
2022-12-20T07:18:32.866Z,19.30
2022-12-20T07:23:36.068Z,16.30
2022-12-20T07:28:40.297Z,21.90
2022-12-20T07:33:43.111Z,14.30
2022-12-20T07:38:46.659Z,18.80
2022-12-20T07:43:50.308Z,17.40
2022-12-20T07:48:53.544Z,17.60
2022-12-20T07:54:10.774Z,19.00
2022-12-20T07:59:18.849Z,21.80
2022-12-20T08:04:26.351Z,22.40
2022-12-20T08:09:35.726Z,22.60
2022-12-20T08:14:39.293Z,21.60
2022-12-20T08:19:42.221Z,19.30
2022-12-20T08:24:46.200Z,15.70
2022-12-20T08:29:50.126Z,16.50
2022-12-20T08:34:57.175Z,15.90
2022-12-20T08:40:02.993Z,21.80
2022-12-20T08:45:06.162Z,19.20
2022-12-20T08:50:09.388Z,17.70
2022-12-20T08:55:23.381Z,15.80
2022-12-20T09:00:30.353Z,16.70
2022-12-20T09:05:34.679Z,19.90
2022-12-20T09:10:38.914Z,21.60
2022-12-20T09:15:43.378Z,18.70
2022-12-20T09:20:46.591Z,18.70
2022-12-20T09:25:53.698Z,17.00
2022-12-20T09:31:07.896Z,16.30
2022-12-20T09:36:14.567Z,19.20
2022-12-20T09:41:37.292Z,19.10
2022-12-20T09:46:41.550Z,21.60
2022-12-20T09:52:03.431Z,16.20
2022-12-20T09:57:25.217Z,23.90
2022-12-20T10:08:38.957Z,17.40
2022-12-20T10:14:29.813Z,15.20
2022-12-20T10:19:54.399Z,14.50
2022-12-20T10:25:18.309Z,19.10
2022-12-20T10:30:28.143Z,14.90
2022-12-20T10:35:41.383Z,15.60
2022-12-20T10:41:20.737Z,16.10
2022-12-20T10:46:21.601Z,19.90
2022-12-20T10:51:25.988Z,12.10
2022-12-20T10:56:33.993Z,19.30
2022-12-20T11:01:46.548Z,18.00
2022-12-20T11:06:49.442Z,19.60
2022-12-20T11:12:14.906Z,21.30
2022-12-20T11:17:28.878Z,22.00
2022-12-20T11:22:39.606Z,19.60
2022-12-20T11:28:32.124Z,18.60
2022-12-20T11:33:57.171Z,17.50
2022-12-20T11:39:21.929Z,16.80
2022-12-20T11:45:24.108Z,18.00
2022-12-20T11:51:16.137Z,18.50
2022-12-20T11:56:43.516Z,19.00
2022-12-20T12:01:53.842Z,14.60
2022-12-20T12:07:03.445Z,16.00
2022-12-20T12:12:30.062Z,17.70
2022-12-20T12:17:53.021Z,14.50
2022-12-20T12:23:06.565Z,19.20
2022-12-20T12:28:14.081Z,18.20
2022-12-20T12:33:25.991Z,15.00
2022-12-20T12:38:49.862Z,15.70
2022-12-20T12:43:57.421Z,14.30
2022-12-20T12:49:04.128Z,19.30
2022-12-20T12:54:09.997Z,16.50
2022-12-20T12:59:12.786Z,17.20
2022-12-20T13:04:22.512Z,19.30
2022-12-20T13:09:32.835Z,18.40
2022-12-20T13:14:45.745Z,17.60
2022-12-20T13:19:54.383Z,21.70
2022-12-20T13:24:58.647Z,20.90
2022-12-20T13:30:07.290Z,15.10
2022-12-20T13:35:44.259Z,15.50
2022-12-20T13:40:59.813Z,19.50
2022-12-20T13:51:26.015Z,14.60
2022-12-20T13:56:29.768Z,20.10
2022-12-20T14:01:34.827Z,19.80
2022-12-20T14:06:40.510Z,14.80
2022-12-20T14:11:55.510Z,20.60
2022-12-20T14:17:33.665Z,14.20
2022-12-20T14:22:37.246Z,18.90
2022-12-20T14:27:40.674Z,20.30
2022-12-20T14:32:50.132Z,17.70
2022-12-20T14:37:55.007Z,16.40
2022-12-20T14:42:57.950Z,17.20
2022-12-20T14:48:08.721Z,16.90
2022-12-20T14:53:29.867Z,18.30
2022-12-20T14:58:34.408Z,19.60
2022-12-20T15:03:53.607Z,20.10
2022-12-20T15:08:56.527Z,18.50
2022-12-20T15:13:59.757Z,16.70
2022-12-20T15:19:03.213Z,19.80
2022-12-20T15:24:12.074Z,18.40
2022-12-20T15:29:20.376Z,22.80
2022-12-20T15:34:32.717Z,20.30
2022-12-20T15:39:36.225Z,19.70
2022-12-20T15:44:39.151Z,21.90
2022-12-20T15:49:47.864Z,17.90
2022-12-20T15:54:53.017Z,22.90
2022-12-20T16:00:01.773Z,19.00
2022-12-20T16:05:05.669Z,21.70
2022-12-20T16:10:13.026Z,18.30
2022-12-20T16:15:22.997Z,17.00
2022-12-20T16:20:27.598Z,14.40
2022-12-20T16:25:36.795Z,18.60
2022-12-20T16:30:39.699Z,18.70
2022-12-20T16:35:42.415Z,21.10
2022-12-20T16:40:45.163Z,19.80
2022-12-20T16:45:47.917Z,16.70
2022-12-20T16:50:50.715Z,23.10
2022-12-20T16:55:53.478Z,21.50
2022-12-20T17:00:56.668Z,17.30
2022-12-20T17:05:59.474Z,20.50
2022-12-20T17:11:02.299Z,19.20
2022-12-20T17:16:05.521Z,16.90
2022-12-20T17:27:00.373Z,20.70
2022-12-20T17:32:03.904Z,21.60
2022-12-20T17:37:07.844Z,20.90
2022-12-20T17:42:14.063Z,24.20
2022-12-20T17:47:17.399Z,21.80
2022-12-20T17:52:21.785Z,23.00
2022-12-20T17:57:25.890Z,23.80
2022-12-20T18:02:28.928Z,19.90
2022-12-20T18:07:31.832Z,24.50
2022-12-20T18:12:37.558Z,27.40
2022-12-20T18:17:40.990Z,22.30
2022-12-20T18:22:43.854Z,14.80
2022-12-20T18:27:46.616Z,26.60
2022-12-20T18:32:49.358Z,21.30
2022-12-20T18:37:52.124Z,18.80
2022-12-20T18:42:54.919Z,23.90
2022-12-20T18:47:57.727Z,23.50
2022-12-20T18:53:01.800Z,24.10
2022-12-20T18:58:04.893Z,18.20
2022-12-20T19:03:07.711Z,22.50
2022-12-20T19:08:10.681Z,23.50
2022-12-20T19:13:13.999Z,23.00
2022-12-20T19:18:16.725Z,16.30
2022-12-20T19:23:20.824Z,23.70
2022-12-20T19:28:24.110Z,22.70
2022-12-20T19:33:26.835Z,25.40
2022-12-20T19:38:29.541Z,18.30
2022-12-20T19:43:32.276Z,23.70
2022-12-20T19:48:35.850Z,22.00
2022-12-20T19:53:40.099Z,20.70
2022-12-20T19:58:44.054Z,22.00
2022-12-20T20:03:47.054Z,25.30
2022-12-20T20:08:50.245Z,22.60
2022-12-20T20:13:53.095Z,21.70
2022-12-20T20:18:56.802Z,17.80
2022-12-20T20:23:59.625Z,23.30
2022-12-20T20:29:03.435Z,20.80
2022-12-20T20:34:06.199Z,21.30
2022-12-20T20:39:08.959Z,20.30
2022-12-20T20:44:12.532Z,21.60
2022-12-20T20:49:15.385Z,17.20
2022-12-20T20:54:18.127Z,23.60
2022-12-20T20:59:22.910Z,18.70
2022-12-20T21:04:25.643Z,21.70
2022-12-20T21:09:28.893Z,18.50
2022-12-20T21:15:10.718Z,23.00
2022-12-20T21:19:54.449Z,21.10
2022-12-20T21:25:00.429Z,22.10
2022-12-20T21:30:04.888Z,19.20
2022-12-20T21:35:08.010Z,20.00
2022-12-20T21:40:11.241Z,21.70
2022-12-20T21:45:14.097Z,20.10
2022-12-20T21:50:17.024Z,21.80
2022-12-20T21:55:21.052Z,21.20
2022-12-20T22:00:24.076Z,19.50
2022-12-20T22:05:27.097Z,19.50
2022-12-20T22:10:29.808Z,20.30
2022-12-20T22:15:32.957Z,11.60
2022-12-20T22:20:36.180Z,15.40
2022-12-20T22:25:38.995Z,20.30
2022-12-20T22:30:42.927Z,17.80
2022-12-20T22:35:45.723Z,20.90
2022-12-20T22:40:48.406Z,19.90
2022-12-20T22:49:13.316Z,18.10
2022-12-20T22:51:23.192Z,19.30
2022-12-20T22:56:27.138Z,18.10
2022-12-20T23:01:30.002Z,15.80
2022-12-20T23:06:33.074Z,16.40
2022-12-20T23:11:54.787Z,22.20
2022-12-20T23:16:58.169Z,18.30
2022-12-20T23:22:19.752Z,17.50
2022-12-20T23:27:22.476Z,18.80
2022-12-20T23:32:25.228Z,19.00
2022-12-20T23:37:31.385Z,18.20
2022-12-20T23:42:34.374Z,18.00
2022-12-20T23:47:37.117Z,22.00
2022-12-20T23:52:40.615Z,16.70
2022-12-20T23:57:43.352Z,14.50
